Historique des mesures à Cassis (13260), France
Quotidien Résumé Fevrier 2, 2018 Unités:  Métrique/US    US   Métrique
« Précédent (Jour)
Suivant (Jour) »
Quotidien Hebdomadaire Mensuel Annuel Période au choix
  Maximum: Minimum: Moyenne:
Température: 32 °F /  TemperatureC °C 42.1 °F /  5.6 °C 45 °F /  7.2 °C
Point de rosée: 32 °F /  DewpointC °C 26.8 °F /  -2.9 °C 30.6 °F /  -0.8 °C
Humidité: Humidity % 50 % 53 %
Vitesse du vent: WindSpeedKMH mph /  0 km/h - 6.5 mph /  10.5 km/h
Rafales: WindSpeedGustKMH mph /  0 km/h - -
Vent:- - WSW
Pression: 0 in /  PressurehPa hPa 29.5 in /  998.9 hPa -
Précipitations: 0 in /  0.0 mm    
Historical Graphs
 
 
Mesures pour : Fevrier 2, 2018
Heure Temperature Point de rosée Pression Vent Vitesse du vent Rafales Humidité Pluie (par heure) Conditions
32 °F /  TemperatureC °C 32 °F /  DewpointC °C 0 in /  PressurehPa hPa Calm     Humidity % 0 in /  HourlyPrecipMM mm SoftwareType W/m2
00:12 46 °F /  7.8 °C 33.6 °F /  0.9 °C 29.5 in /  1000.2 hPa NW 6.8 mph /  10.9 km/h 6.8 mph /  10.9 km/h 62 % 0 in /  0.0 mm open2300-1.11 W/m2
01:12 46.2 °F /  7.9 °C 32.2 °F /  0.1 °C 29.5 in /  999.5 hPa West 10.5 mph /  16.9 km/h 11.1 mph /  17.9 km/h 58 % 0 in /  0.0 mm open2300-1.11 W/m2
02:12 45.5 °F /  7.5 °C 30.2 °F /  -1.0 °C 29.5 in /  999.2 hPa WNW 14.3 mph /  23 km/h 14.3 mph /  23 km/h 55 % 0 in /  0.0 mm open2300-1.11 W/m2
03:12 44.6 °F /  7.0 °C 28.9 °F /  -1.7 °C 29.5 in /  999.2 hPa NNW 4.0 mph /  6.4 km/h 5.0 mph /  8 km/h 54 % 0 in /  0.0 mm open2300-1.11 W/m2
04:12 42.4 °F /  5.8 °C 29.8 °F /  -1.2 °C 29.5 in /  999.2 hPa NW 4.7 mph /  7.6 km/h 6.4 mph /  10.3 km/h 61 % 0 in /  0.0 mm open2300-1.11 W/m2
05:12 42.6 °F /  5.9 °C 30 °F /  -1.1 °C 29.5 in /  999.2 hPa Calm   2.1 mph /  3.4 km/h 61 % 0 in /  0.0 mm open2300-1.11 W/m2
06:12 42.6 °F /  5.9 °C 29.7 °F /  -1.3 °C 29.5 in /  999.5 hPa West 2.6 mph /  4.2 km/h 2.6 mph /  4.2 km/h 60 % 0 in /  0.0 mm open2300-1.11 W/m2
07:12 42.1 °F /  5.6 °C 29.1 °F /  -1.6 °C 29.5 in /  999.5 hPa North 4.0 mph /  6.4 km/h 7.6 mph /  12.2 km/h 60 % 0 in /  0.0 mm open2300-1.11 W/m2
08:12 42.6 °F /  5.9 °C 28.8 °F /  -1.8 °C 29.5 in /  999.2 hPa Calm   8.7 mph /  14 km/h 58 % 0 in /  0.0 mm open2300-1.11 W/m2
09:12 43.5 °F /  6.4 °C 29.1 °F /  -1.6 °C 29.5 in /  999.5 hPa Calm     57 % 0 in /  0.0 mm open2300-1.11 W/m2
11:12 45.3 °F /  7.4 °C 29.1 °F /  -1.6 °C 29.5 in /  999.9 hPa North 2.6 mph /  4.2 km/h 11.9 mph /  19.2 km/h 53 % 0 in /  0.0 mm open2300-1.11 W/m2
12:12 46.2 °F /  7.9 °C 30.4 °F /  -0.9 °C 29.5 in /  1000.2 hPa WSW 13.0 mph /  20.9 km/h 13.0 mph /  20.9 km/h 54 % 0 in /  0.0 mm open2300-1.11 W/m2
13:12 48 °F /  8.9 °C 31.6 °F /  -0.2 °C 29.5 in /  999.2 hPa NNW 8.7 mph /  14 km/h 15.1 mph /  24.3 km/h 53 % 0 in /  0.0 mm open2300-1.11 W/m2
14:12 48 °F /  8.9 °C 32.5 °F /  0.3 °C 29.5 in /  998.9 hPa NNW 2.9 mph /  4.7 km/h 4.0 mph /  6.4 km/h 55 % 0 in /  0.0 mm open2300-1.11 W/m2
15:12 48.2 °F /  9.0 °C 33.6 °F /  0.9 °C 29.5 in /  998.9 hPa NNE 6.4 mph /  10.3 km/h 15.8 mph /  25.4 km/h 57 % 0 in /  0.0 mm open2300-1.11 W/m2
16:12 48.7 °F /  9.3 °C 33.6 °F /  0.9 °C 29.5 in /  998.9 hPa West 5.5 mph /  8.9 km/h 5.5 mph /  8.9 km/h 56 % 0 in /  0.0 mm open2300-1.11 W/m2
17:12 48.4 °F /  9.1 °C 32.9 °F /  0.5 °C 29.5 in /  998.9 hPa West 6.1 mph /  9.8 km/h 6.1 mph /  9.8 km/h 55 % 0 in /  0.0 mm open2300-1.11 W/m2
18:12 47.5 °F /  8.6 °C 32.5 °F /  0.3 °C 29.5 in /  999.2 hPa NNW 7.6 mph /  12.2 km/h 11.1 mph /  17.9 km/h 56 % 0 in /  0.0 mm open2300-1.11 W/m2
19:12 46.9 °F /  8.3 °C 31.1 °F /  -0.5 °C 29.5 in /  999.2 hPa NW 10.1 mph /  16.3 km/h 22.7 mph /  36.5 km/h 54 % 0 in /  0.0 mm open2300-1.11 W/m2
20:12 46.9 °F /  8.3 °C 29.1 °F /  -1.6 °C 29.5 in /  999.5 hPa Calm   8.7 mph /  14 km/h 50 % 0 in /  0.0 mm open2300-1.11 W/m2
21:12 45.7 °F /  7.6 °C 28.6 °F /  -1.9 °C 29.5 in /  999.2 hPa WNW 14.3 mph /  23 km/h 20.9 mph /  33.6 km/h 51 % 0 in /  0.0 mm open2300-1.11 W/m2
22:12 44.4 °F /  6.9 °C 27.3 °F /  -2.6 °C 29.5 in /  998.9 hPa NW 7.6 mph /  12.2 km/h 7.6 mph /  12.2 km/h 51 % 0 in /  0.0 mm open2300-1.11 W/m2
23:12 43.7 °F /  6.5 °C 26.8 °F /  -2.9 °C 29.5 in /  999.2 hPa WNW 23.3 mph /  37.5 km/h 23.3 mph /  37.5 km/h 51 % 0 in /  0.0 mm open2300-1.11 W/m2
Observations météo à CASSIS
WU-History script by Weather Underground - 1 mb